Time,TemperatureF,DewpointF,PressureIn,WindDirection,WindDirectionDegrees,WindSpeedMPH,WindSpeedGustMPH,Humidity,HourlyPrecipIn,Conditions,Clouds,dailyrainin,SolarRadiationWatts/m^2,SoftwareType,DateUTC
2013-02-06 00:06:00,69.1,68.0,29.89,SSE,153,4.0,-999.0,96,-99.99,,,0.01,0,weatherlink.com 1.10,2013-02-06 06:06:00,
2013-02-06 00:21:00,69.3,68.0,29.91,ESE,122,1.0,-999.0,96,-99.99,,,0.01,0,weatherlink.com 1.10,2013-02-06 06:21:00,
2013-02-06 00:36:00,69.5,68.0,29.92,South,180,3.0,-999.0,96,-99.99,,,0.01,0,weatherlink.com 1.10,2013-02-06 06:36:00,
2013-02-06 00:51:00,69.7,69.0,29.95,South,189,2.0,-999.0,96,-99.99,,,0.03,0,weatherlink.com 1.10,2013-02-06 06:51:00,
2013-02-06 01:06:00,69.7,69.0,29.92,SE,136,0.0,-999.0,96,-99.99,,,0.06,0,weatherlink.com 1.10,2013-02-06 07:06:00,
2013-02-06 01:21:00,69.5,68.0,29.87,SE,140,2.0,-999.0,96,-99.99,,,0.07,0,weatherlink.com 1.10,2013-02-06 07:21:00,
2013-02-06 01:36:00,69.5,68.0,29.89,SSE,158,0.0,-999.0,96,-99.99,,,0.07,0,weatherlink.com 1.10,2013-02-06 07:36:00,
2013-02-06 01:51:00,69.4,68.0,29.88,South,174,2.0,-999.0,96,-99.99,,,0.07,0,weatherlink.com 1.10,2013-02-06 07:51:00,
2013-02-06 02:06:00,69.2,68.0,29.88,SE,136,1.0,-999.0,96,-99.99,,,0.07,0,weatherlink.com 1.10,2013-02-06 08:06:00,
2013-02-06 02:21:00,69.2,68.0,29.88,ESE,104,0.0,-999.0,97,-99.99,,,0.07,0,weatherlink.com 1.10,2013-02-06 08:21:00,
2013-02-06 02:36:00,69.2,68.0,29.88,SE,127,0.0,-999.0,97,-99.99,,,0.07,0,weatherlink.com 1.10,2013-02-06 08:36:00,
2013-02-06 02:51:00,69.2,68.0,29.88,ESE,116,2.0,-999.0,97,-99.99,,,0.07,0,weatherlink.com 1.10,2013-02-06 08:51:00,
2013-02-06 03:06:00,69.0,68.0,29.88,East,98,0.0,-999.0,97,-99.99,,,0.07,0,weatherlink.com 1.10,2013-02-06 09:06:00,
2013-02-06 03:21:00,68.6,68.0,29.87,East,83,3.0,-999.0,97,-99.99,,,0.07,0,weatherlink.com 1.10,2013-02-06 09:21:00,
2013-02-06 03:36:00,68.6,68.0,29.87,ENE,71,2.0,-999.0,97,-99.99,,,0.07,0,weatherlink.com 1.10,2013-02-06 09:36:00,
2013-02-06 03:51:00,68.6,68.0,29.87,East,84,2.0,-999.0,97,-99.99,,,0.00,0,weatherlink.com 1.10,2013-02-06 09:51:00,
2013-02-06 04:06:00,68.2,67.0,29.87,East,84,1.0,-999.0,97,-99.99,,,0.00,0,weatherlink.com 1.10,2013-02-06 10:06:00,
2013-02-06 04:21:00,67.9,67.0,29.88,East,90,1.0,-999.0,97,-99.99,,,0.00,0,weatherlink.com 1.10,2013-02-06 10:21:00,
2013-02-06 04:36:00,67.9,67.0,29.88,ESE,105,1.0,-999.0,97,-99.99,,,0.00,0,weatherlink.com 1.10,2013-02-06 10:36:00,
2013-02-06 04:51:00,68.1,67.0,29.88,East,95,1.0,-999.0,97,-99.99,,,0.00,0,weatherlink.com 1.10,2013-02-06 10:51:00,
2013-02-06 05:06:00,68.2,67.0,29.88,ESE,103,2.0,-999.0,97,-99.99,,,0.00,0,weatherlink.com 1.10,2013-02-06 11:06:00,
2013-02-06 05:21:00,68.3,68.0,29.88,SE,132,1.0,-999.0,97,-99.99,,,0.00,0,weatherlink.com 1.10,2013-02-06 11:21:00,
2013-02-06 05:36:00,68.4,68.0,29.89,East,94,1.0,-999.0,97,-99.99,,,0.00,0,weatherlink.com 1.10,2013-02-06 11:36:00,
2013-02-06 05:51:00,68.5,68.0,29.89,East,95,0.0,-999.0,97,-99.99,,,0.00,0,weatherlink.com 1.10,2013-02-06 11:51:00,
2013-02-06 06:06:00,68.4,68.0,29.89,ENE,62,2.0,-999.0,97,-99.99,,,0.00,0,weatherlink.com 1.10,2013-02-06 12:06:00,
2013-02-06 06:21:00,68.4,68.0,29.88,ENE,57,3.0,-999.0,97,-99.99,,,0.00,0,weatherlink.com 1.10,2013-02-06 12:21:00,
2013-02-06 06:36:00,68.5,68.0,29.88,East,82,2.0,-999.0,98,-99.99,,,0.01,0,weatherlink.com 1.10,2013-02-06 12:36:00,
2013-02-06 06:51:00,68.6,68.0,29.88,ENE,76,5.0,-999.0,98,-99.99,,,0.01,0,weatherlink.com 1.10,2013-02-06 12:51:00,
2013-02-06 07:06:00,68.6,68.0,29.88,SE,128,3.0,-999.0,98,-99.99,,,0.01,0,weatherlink.com 1.10,2013-02-06 13:06:00,
2013-02-06 07:21:00,68.5,68.0,29.87,ESE,115,3.0,-999.0,98,-99.99,,,0.01,0,weatherlink.com 1.10,2013-02-06 13:21:00,
2013-02-06 07:36:00,68.5,68.0,29.87,East,89,1.0,-999.0,98,-99.99,,,0.01,9,weatherlink.com 1.10,2013-02-06 13:36:00,
2013-02-06 07:51:00,68.6,68.0,29.87,East,90,4.0,-999.0,98,-99.99,,,0.01,7,weatherlink.com 1.10,2013-02-06 13:51:00,
2013-02-06 08:06:00,68.9,68.0,29.87,East,98,5.0,-999.0,97,-99.99,,,0.01,30,weatherlink.com 1.10,2013-02-06 14:06:00,
2013-02-06 08:21:00,68.9,68.0,29.87,ESE,112,5.0,-999.0,97,-99.99,,,0.01,21,weatherlink.com 1.10,2013-02-06 14:21:00,
2013-02-06 08:36:00,69.1,69.0,29.86,ESE,120,2.0,-999.0,98,-99.99,,,0.01,32,weatherlink.com 1.10,2013-02-06 14:36:00,
2013-02-06 08:51:00,69.4,69.0,29.86,ESE,121,10.0,-999.0,97,-99.99,,,0.01,32,weatherlink.com 1.10,2013-02-06 14:51:00,
2013-02-06 09:07:00,69.4,69.0,29.86,ESE,107,4.0,-999.0,97,-99.99,,,0.01,39,weatherlink.com 1.10,2013-02-06 15:07:00,
2013-02-06 09:21:00,69.6,69.0,29.86,East,88,1.0,-999.0,97,-99.99,,,0.01,81,weatherlink.com 1.10,2013-02-06 15:21:00,
2013-02-06 09:36:00,69.6,69.0,29.87,South,173,5.0,-999.0,97,-99.99,,,0.01,40,weatherlink.com 1.10,2013-02-06 15:36:00,
2013-02-06 09:51:00,69.4,69.0,29.87,SSE,159,3.0,-999.0,97,-99.99,,,0.07,33,weatherlink.com 1.10,2013-02-06 15:51:00,
2013-02-06 10:06:00,69.4,69.0,29.87,SE,138,2.0,-999.0,97,-99.99,,,0.17,51,weatherlink.com 1.10,2013-02-06 16:06:00,
2013-02-06 10:22:00,70.2,69.0,29.87,SW,234,2.0,-999.0,97,-99.99,,,0.17,181,weatherlink.com 1.10,2013-02-06 16:22:00,
2013-02-06 10:36:00,70.6,70.0,29.86,SSE,161,5.0,-999.0,98,-99.99,,,0.17,225,weatherlink.com 1.10,2013-02-06 16:36:00,
2013-02-06 10:51:00,71.0,70.0,29.86,SSW,198,6.0,-999.0,98,-99.99,,,0.17,142,weatherlink.com 1.10,2013-02-06 16:51:00,
2013-02-06 11:07:00,71.0,70.0,29.86,South,185,5.0,-999.0,97,-99.99,,,0.17,128,weatherlink.com 1.10,2013-02-06 17:07:00,
2013-02-06 11:21:00,71.0,70.0,29.86,SE,143,0.0,-999.0,97,-99.99,,,0.17,63,weatherlink.com 1.10,2013-02-06 17:21:00,
2013-02-06 11:37:00,71.8,71.0,29.85,SSW,197,4.0,-999.0,98,-99.99,,,0.17,135,weatherlink.com 1.10,2013-02-06 17:37:00,
2013-02-06 11:52:00,72.1,71.0,29.84,SSE,157,0.0,-999.0,97,-99.99,,,0.17,202,weatherlink.com 1.10,2013-02-06 17:52:00,
2013-02-06 12:07:00,67.8,66.0,29.84,NNE,27,15.0,-999.0,94,-99.99,,,0.18,105,weatherlink.com 1.10,2013-02-06 18:07:00,
2013-02-06 12:22:00,65.9,65.0,29.82,NNE,26,12.0,-999.0,95,-99.99,,,0.18,169,weatherlink.com 1.10,2013-02-06 18:22:00,
2013-02-06 12:37:00,65.2,64.0,29.81,NNW,341,0.0,-999.0,95,-99.99,,,0.26,11,weatherlink.com 1.10,2013-02-06 18:37:00,
2013-02-06 12:52:00,64.8,64.0,29.82,North,5,12.0,-999.0,96,-99.99,,,0.40,26,weatherlink.com 1.10,2013-02-06 18:52:00,
2013-02-06 13:07:00,64.5,63.0,29.82,NNE,15,9.0,-999.0,96,-99.99,,,0.41,28,weatherlink.com 1.10,2013-02-06 19:07:00,
2013-02-06 13:38:00,64.6,64.0,29.81,NE,49,14.0,-999.0,97,-99.99,,,0.60,353,weatherlink.com 1.10,2013-02-06 19:38:00,
2013-02-06 13:52:00,64.5,63.0,29.81,NE,49,13.0,-999.0,96,-99.99,,,0.60,218,weatherlink.com 1.10,2013-02-06 19:52:00,
2013-02-06 14:07:00,64.2,63.0,29.80,NE,34,11.0,-999.0,96,-99.99,,,0.60,144,weatherlink.com 1.10,2013-02-06 20:07:00,
2013-02-06 14:22:00,64.7,63.0,29.79,NNE,32,15.0,-999.0,95,-99.99,,,0.60,724,weatherlink.com 1.10,2013-02-06 20:22:00,
2013-02-06 14:37:00,65.3,64.0,29.79,NNE,32,9.0,-999.0,95,-99.99,,,0.60,570,weatherlink.com 1.10,2013-02-06 20:37:00,
2013-02-06 14:53:00,65.8,64.0,29.78,ENE,61,11.0,-999.0,93,-99.99,,,0.60,229,weatherlink.com 1.10,2013-02-06 20:53:00,
2013-02-06 15:07:00,66.5,64.0,29.78,NNE,31,11.0,-999.0,92,-99.99,,,0.60,490,weatherlink.com 1.10,2013-02-06 21:07:00,
2013-02-06 15:22:00,67.5,65.0,29.77,NE,40,10.0,-999.0,91,-99.99,,,0.60,522,weatherlink.com 1.10,2013-02-06 21:22:00,
2013-02-06 15:37:00,67.5,65.0,29.76,NE,55,12.0,-999.0,90,-99.99,,,0.60,281,weatherlink.com 1.10,2013-02-06 21:37:00,
2013-02-06 15:53:00,67.7,64.0,29.76,ENE,57,16.0,-999.0,89,-99.99,,,0.60,404,weatherlink.com 1.10,2013-02-06 21:53:00,
2013-02-06 16:08:00,67.5,64.0,29.76,ENE,74,11.0,-999.0,89,-99.99,,,0.60,160,weatherlink.com 1.10,2013-02-06 22:08:00,
2013-02-06 16:23:00,67.3,64.0,29.76,NE,49,11.0,-999.0,90,-99.99,,,0.60,160,weatherlink.com 1.10,2013-02-06 22:23:00,
2013-02-06 16:38:00,66.8,64.0,29.76,ENE,72,7.0,-999.0,90,-99.99,,,0.60,69,weatherlink.com 1.10,2013-02-06 22:38:00,
2013-02-06 16:53:00,66.8,65.0,29.77,NE,46,9.0,-999.0,92,-99.99,,,0.60,69,weatherlink.com 1.10,2013-02-06 22:53:00,
2013-02-06 17:07:00,66.9,64.0,29.77,NE,50,11.0,-999.0,91,-99.99,,,0.60,28,weatherlink.com 1.10,2013-02-06 23:07:00,
2013-02-06 17:23:00,66.5,64.0,29.79,NNE,30,12.0,-999.0,92,-99.99,,,0.60,35,weatherlink.com 1.10,2013-02-06 23:23:00,
2013-02-06 17:38:00,66.2,64.0,29.79,NE,53,9.0,-999.0,92,-99.99,,,0.60,37,weatherlink.com 1.10,2013-02-06 23:38:00,
2013-02-06 17:52:00,66.0,64.0,29.79,ENE,65,15.0,-999.0,93,-99.99,,,0.60,19,weatherlink.com 1.10,2013-02-06 23:52:00,
2013-02-06 18:08:00,65.7,64.0,29.80,ENE,76,9.0,-999.0,93,-99.99,,,0.60,5,weatherlink.com 1.10,2013-02-07 00:08:00,
2013-02-06 18:23:00,65.4,63.0,29.80,ENE,69,8.0,-999.0,93,-99.99,,,0.60,0,weatherlink.com 1.10,2013-02-07 00:23:00,
2013-02-06 18:38:00,65.0,63.0,29.81,ENE,65,13.0,-999.0,92,-99.99,,,0.60,0,weatherlink.com 1.10,2013-02-07 00:38:00,
2013-02-06 18:52:00,64.8,63.0,29.81,ENE,70,9.0,-999.0,93,-99.99,,,0.60,0,weatherlink.com 1.10,2013-02-07 00:52:00,
2013-02-06 19:08:00,64.7,63.0,29.82,ENE,63,12.0,-999.0,93,-99.99,,,0.60,0,weatherlink.com 1.10,2013-02-07 01:08:00,
2013-02-06 19:22:00,64.7,63.0,29.82,ENE,67,5.0,-999.0,93,-99.99,,,0.60,0,weatherlink.com 1.10,2013-02-07 01:22:00,
2013-02-06 19:37:00,64.7,63.0,29.82,ENE,63,10.0,-999.0,93,-99.99,,,0.60,0,weatherlink.com 1.10,2013-02-07 01:37:00,
2013-02-06 20:08:00,64.3,63.0,29.82,NE,56,7.0,-999.0,94,-99.99,,,0.60,0,weatherlink.com 1.10,2013-02-07 02:08:00,
2013-02-06 20:23:00,64.2,63.0,29.83,NE,56,9.0,-999.0,94,-99.99,,,0.60,0,weatherlink.com 1.10,2013-02-07 02:23:00,
2013-02-06 20:38:00,64.0,62.0,29.83,ENE,67,10.0,-999.0,94,-99.99,,,0.60,0,weatherlink.com 1.10,2013-02-07 02:38:00,
2013-02-06 20:53:00,63.9,62.0,29.83,NE,49,4.0,-999.0,94,-99.99,,,0.60,0,weatherlink.com 1.10,2013-02-07 02:53:00,
2013-02-06 21:08:00,63.9,62.0,29.83,ENE,71,6.0,-999.0,94,-99.99,,,0.60,0,weatherlink.com 1.10,2013-02-07 03:08:00,
2013-02-06 21:23:00,63.9,62.0,29.84,ENE,57,5.0,-999.0,94,-99.99,,,0.60,0,weatherlink.com 1.10,2013-02-07 03:23:00,
2013-02-06 21:38:00,63.9,62.0,29.84,ENE,66,5.0,-999.0,94,-99.99,,,0.60,0,weatherlink.com 1.10,2013-02-07 03:38:00,
2013-02-06 21:53:00,63.9,62.0,29.84,NE,55,7.0,-999.0,94,-99.99,,,0.60,0,weatherlink.com 1.10,2013-02-07 03:53:00,
2013-02-06 22:08:00,63.8,62.0,29.84,NE,56,5.0,-999.0,94,-99.99,,,0.60,0,weatherlink.com 1.10,2013-02-07 04:08:00,
2013-02-06 22:23:00,63.7,62.0,29.85,ENE,59,9.0,-999.0,94,-99.99,,,0.60,0,weatherlink.com 1.10,2013-02-07 04:23:00,
2013-02-06 22:38:00,63.6,62.0,29.85,ENE,59,4.0,-999.0,94,-99.99,,,0.60,0,weatherlink.com 1.10,2013-02-07 04:38:00,
2013-02-06 22:53:00,63.5,62.0,29.85,ENE,59,7.0,-999.0,94,-99.99,,,0.60,0,weatherlink.com 1.10,2013-02-07 04:53:00,
2013-02-06 23:08:00,63.4,61.0,29.85,East,87,3.0,-999.0,93,-99.99,,,0.60,0,weatherlink.com 1.10,2013-02-07 05:08:00,
2013-02-06 23:23:00,63.5,62.0,29.85,ENE,65,5.0,-999.0,93,-99.99,,,0.60,0,weatherlink.com 1.10,2013-02-07 05:23:00,
2013-02-06 23:38:00,63.6,62.0,29.85,ENE,58,5.0,-999.0,93,-99.99,,,0.60,0,weatherlink.com 1.10,2013-02-07 05:38:00,